sensor_id;sensor_type;location;lat;lon;timestamp;pressure;altitude;pressure_sealevel;temperature;humidity
70127;BME280;57491;42.694;23.314;2023-07-31T00:02:04;94802.94;;;23.05;62.08
70127;BME280;57491;42.694;23.314;2023-07-31T00:04:31;94793.38;;;23.09;61.79
70127;BME280;57491;42.694;23.314;2023-07-31T00:06:59;94794.19;;;23.09;61.13
70127;BME280;57491;42.694;23.314;2023-07-31T00:09:26;94797.63;;;23.05;60.92
70127;BME280;57491;42.694;23.314;2023-07-31T00:11:53;94796.03;;;23.14;61.24
70127;BME280;57491;42.694;23.314;2023-07-31T00:14:20;94800.81;;;23.22;60.90
70127;BME280;57491;42.694;23.314;2023-07-31T00:16:47;94804.53;;;23.26;60.85
70127;BME280;57491;42.694;23.314;2023-07-31T00:19:15;94796.56;;;23.21;60.84
70127;BME280;57491;42.694;23.314;2023-07-31T00:21:42;94790.22;;;23.22;61.04
70127;BME280;57491;42.694;23.314;2023-07-31T00:24:10;94796.31;;;23.18;61.29
70127;BME280;57491;42.694;23.314;2023-07-31T00:26:37;94794.16;;;23.04;62.04
70127;BME280;57491;42.694;23.314;2023-07-31T00:29:04;94783.28;;;22.96;62.71
70127;BME280;57491;42.694;23.314;2023-07-31T00:31:32;94767.88;;;22.93;63.08
70127;BME280;57491;42.694;23.314;2023-07-31T00:33:59;94763.09;;;22.85;64.05
70127;BME280;57491;42.694;23.314;2023-07-31T00:36:26;94758.59;;;22.80;64.45
70127;BME280;57491;42.694;23.314;2023-07-31T00:38:53;94763.09;;;22.80;64.58
70127;BME280;57491;42.694;23.314;2023-07-31T00:41:21;94748.78;;;22.81;64.59
70127;BME280;57491;42.694;23.314;2023-07-31T00:43:48;94768.13;;;22.76;64.67
70127;BME280;57491;42.694;23.314;2023-07-31T00:46:15;94761.75;;;22.72;65.08
70127;BME280;57491;42.694;23.314;2023-07-31T00:48:43;94765.72;;;22.75;65.22
70127;BME280;57491;42.694;23.314;2023-07-31T00:51:10;94762.50;;;22.62;65.47
70127;BME280;57491;42.694;23.314;2023-07-31T00:53:38;94771.00;;;22.64;65.87
70127;BME280;57491;42.694;23.314;2023-07-31T00:56:06;94764.84;;;22.54;66.09
70127;BME280;57491;42.694;23.314;2023-07-31T00:58:35;94759.81;;;22.52;66.53
70127;BME280;57491;42.694;23.314;2023-07-31T01:01:02;94762.44;;;22.47;66.89
70127;BME280;57491;42.694;23.314;2023-07-31T01:03:29;94752.91;;;22.41;67.35
70127;BME280;57491;42.694;23.314;2023-07-31T01:06:04;94757.16;;;22.42;67.39
70127;BME280;57491;42.694;23.314;2023-07-31T01:08:39;94753.69;;;22.37;67.30
70127;BME280;57491;42.694;23.314;2023-07-31T01:11:11;94764.00;;;22.33;67.53
70127;BME280;57491;42.694;23.314;2023-07-31T01:13:42;94769.31;;;22.33;67.68
70127;BME280;57491;42.694;23.314;2023-07-31T01:16:11;94752.88;;;22.36;67.73
70127;BME280;57491;42.694;23.314;2023-07-31T01:18:38;94752.88;;;22.36;67.67
70127;BME280;57491;42.694;23.314;2023-07-31T01:21:18;94745.97;;;22.35;67.80
70127;BME280;57491;42.694;23.314;2023-07-31T01:24:15;94748.59;;;22.30;67.98
70127;BME280;57491;42.694;23.314;2023-07-31T01:26:53;94747.84;;;22.35;68.03
70127;BME280;57491;42.694;23.314;2023-07-31T01:29:29;94747.59;;;22.36;68.02
70127;BME280;57491;42.694;23.314;2023-07-31T01:32:01;94743.03;;;22.27;68.28
70127;BME280;57491;42.694;23.314;2023-07-31T01:34:29;94738.78;;;22.20;68.45
70127;BME280;57491;42.694;23.314;2023-07-31T01:36:57;94741.94;;;22.17;68.86
70127;BME280;57491;42.694;23.314;2023-07-31T01:39:24;94741.69;;;22.19;68.93
70127;BME280;57491;42.694;23.314;2023-07-31T01:41:53;94735.84;;;22.17;69.33
70127;BME280;57491;42.694;23.314;2023-07-31T01:44:20;94740.59;;;22.10;69.30
70127;BME280;57491;42.694;23.314;2023-07-31T01:46:47;94737.09;;;21.99;69.88
70127;BME280;57491;42.694;23.314;2023-07-31T01:49:14;94731.56;;;22.01;70.08
70127;BME280;57491;42.694;23.314;2023-07-31T01:51:41;94741.59;;;21.99;70.16
70127;BME280;57491;42.694;23.314;2023-07-31T01:54:08;94742.94;;;22.01;70.32
70127;BME280;57491;42.694;23.314;2023-07-31T01:56:35;94746.09;;;21.98;70.37
70127;BME280;57491;42.694;23.314;2023-07-31T01:59:03;94751.66;;;21.97;70.54
70127;BME280;57491;42.694;23.314;2023-07-31T02:01:30;94739.13;;;21.87;70.70
70127;BME280;57491;42.694;23.314;2023-07-31T02:03:57;94747.09;;;21.92;70.97
70127;BME280;57491;42.694;23.314;2023-07-31T02:06:24;94744.44;;;21.92;70.97
70127;BME280;57491;42.694;23.314;2023-07-31T02:08:51;94756.09;;;21.91;71.18
70127;BME280;57491;42.694;23.314;2023-07-31T02:11:18;94750.53;;;21.88;71.25
70127;BME280;57491;42.694;23.314;2023-07-31T02:13:46;94756.84;;;21.87;71.34
70127;BME280;57491;42.694;23.314;2023-07-31T02:16:14;94757.09;;;21.85;71.66
70127;BME280;57491;42.694;23.314;2023-07-31T02:18:41;94756.81;;;21.81;71.81
70127;BME280;57491;42.694;23.314;2023-07-31T02:21:08;94743.38;;;21.88;71.70
70127;BME280;57491;42.694;23.314;2023-07-31T02:23:35;94749.72;;;21.87;71.80
70127;BME280;57491;42.694;23.314;2023-07-31T02:26:02;94761.94;;;21.93;71.65
70127;BME280;57491;42.694;23.314;2023-07-31T02:28:29;94758.97;;;21.90;72.14
70127;BME280;57491;42.694;23.314;2023-07-31T02:30:56;94752.97;;;21.99;71.60
70127;BME280;57491;42.694;23.314;2023-07-31T02:33:25;94758.06;;;22.06;71.29
70127;BME280;57491;42.694;23.314;2023-07-31T02:35:52;94759.63;;;22.07;71.53
70127;BME280;57491;42.694;23.314;2023-07-31T02:38:19;94752.75;;;22.06;71.28
70127;BME280;57491;42.694;23.314;2023-07-31T02:40:46;94754.34;;;22.12;71.19
70127;BME280;57491;42.694;23.314;2023-07-31T02:43:13;94763.38;;;22.16;70.93
70127;BME280;57491;42.694;23.314;2023-07-31T02:45:40;94756.75;;;22.13;70.92
70127;BME280;57491;42.694;23.314;2023-07-31T02:48:07;94767.13;;;22.25;70.61
70127;BME280;57491;42.694;23.314;2023-07-31T02:50:36;94774.03;;;22.26;70.97
70127;BME280;57491;42.694;23.314;2023-07-31T02:53:03;94778.03;;;22.29;70.81
70127;BME280;57491;42.694;23.314;2023-07-31T02:55:30;94774.84;;;22.32;70.66
70127;BME280;57491;42.694;23.314;2023-07-31T02:57:57;94784.66;;;22.36;70.31
70127;BME280;57491;42.694;23.314;2023-07-31T03:00:25;94778.81;;;22.34;70.25
70127;BME280;57491;42.694;23.314;2023-07-31T03:02:52;94789.44;;;22.39;70.08
70127;BME280;57491;42.694;23.314;2023-07-31T03:05:19;94792.03;;;22.29;70.07
70127;BME280;57491;42.694;23.314;2023-07-31T03:07:47;94795.78;;;22.33;70.07
70127;BME280;57491;42.694;23.314;2023-07-31T03:10:15;94790.22;;;22.40;69.81
70127;BME280;57491;42.694;23.314;2023-07-31T03:12:42;94768.72;;;22.26;69.78
70127;BME280;57491;42.694;23.314;2023-07-31T03:15:09;94793.13;;;22.38;69.74
70127;BME280;57491;42.694;23.314;2023-07-31T03:17:37;94798.44;;;22.38;70.02
70127;BME280;57491;42.694;23.314;2023-07-31T03:20:04;94788.88;;;22.32;69.95
70127;BME280;57491;42.694;23.314;2023-07-31T03:22:31;94790.78;;;22.42;69.94
70127;BME280;57491;42.694;23.314;2023-07-31T03:25:00;94800.56;;;22.36;69.99
70127;BME280;57491;42.694;23.314;2023-07-31T03:27:27;94795.78;;;22.33;70.12
70127;BME280;57491;42.694;23.314;2023-07-31T03:29:54;94795.78;;;22.33;70.31
70127;BME280;57491;42.694;23.314;2023-07-31T03:32:21;94800.03;;;22.39;70.13
70127;BME280;57491;42.694;23.314;2023-07-31T03:34:49;94796.59;;;22.39;69.70
70127;BME280;57491;42.694;23.314;2023-07-31T03:37:16;94795.81;;;22.43;69.84
70127;BME280;57491;42.694;23.314;2023-07-31T03:39:43;94805.13;;;22.51;69.24
70127;BME280;57491;42.694;23.314;2023-07-31T03:42:11;94810.94;;;22.53;69.22
70127;BME280;57491;42.694;23.314;2023-07-31T03:44:39;94804.34;;;22.60;69.04
70127;BME280;57491;42.694;23.314;2023-07-31T03:47:06;94776.75;;;22.46;68.55
70127;BME280;57491;42.694;23.314;2023-07-31T03:49:33;94808.88;;;22.65;68.78
70127;BME280;57491;42.694;23.314;2023-07-31T03:52:00;94814.50;;;22.74;68.27
70127;BME280;57491;42.694;23.314;2023-07-31T03:54:27;94814.22;;;22.75;68.06
70127;BME280;57491;42.694;23.314;2023-07-31T03:56:54;94815.56;;;22.73;67.75
70127;BME280;57491;42.694;23.314;2023-07-31T03:59:22;94818.72;;;22.69;68.11
70127;BME280;57491;42.694;23.314;2023-07-31T04:01:49;94822.63;;;22.57;68.51
70127;BME280;57491;42.694;23.314;2023-07-31T04:04:16;94814.16;;;22.55;68.68
70127;BME280;57491;42.694;23.314;2023-07-31T04:06:43;94813.63;;;22.58;68.67
70127;BME280;57491;42.694;23.314;2023-07-31T04:09:10;94818.41;;;22.56;68.81
70127;BME280;57491;42.694;23.314;2023-07-31T04:11:37;94816.50;;;22.46;68.92
70127;BME280;57491;42.694;23.314;2023-07-31T04:14:04;94821.81;;;22.46;69.07
70127;BME280;57491;42.694;23.314;2023-07-31T04:16:33;94827.09;;;22.46;68.73
70127;BME280;57491;42.694;23.314;2023-07-31T04:19:00;94820.72;;;22.47;69.01
70127;BME280;57491;42.694;23.314;2023-07-31T04:21:28;94822.56;;;22.42;68.71
70127;BME280;57491;42.694;23.314;2023-07-31T04:23:55;94822.53;;;22.37;69.25
70127;BME280;57491;42.694;23.314;2023-07-31T04:26:24;94824.69;;;22.45;68.96
70127;BME280;57491;42.694;23.314;2023-07-31T04:28:51;94829.22;;;22.49;68.49
70127;BME280;57491;42.694;23.314;2023-07-31T04:31:19;94830.03;;;22.55;68.30
70127;BME280;57491;42.694;23.314;2023-07-31T04:33:47;94836.66;;;22.57;68.20
70127;BME280;57491;42.694;23.314;2023-07-31T04:36:14;94837.75;;;22.66;67.74
70127;BME280;57491;42.694;23.314;2023-07-31T04:38:41;94835.13;;;22.66;67.32
70127;BME280;57491;42.694;23.314;2023-07-31T04:41:08;94835.66;;;22.68;67.51
70127;BME280;57491;42.694;23.314;2023-07-31T04:43:35;94841.56;;;22.81;66.99
70127;BME280;57491;42.694;23.314;2023-07-31T04:46:04;94838.34;;;22.79;66.90
70127;BME280;57491;42.694;23.314;2023-07-31T04:48:31;94832.78;;;22.75;66.66
70127;BME280;57491;42.694;23.314;2023-07-31T04:51:00;94830.41;;;22.79;66.34
70127;BME280;57491;42.694;23.314;2023-07-31T04:53:27;94827.78;;;22.89;66.55
70127;BME280;57491;42.694;23.314;2023-07-31T04:55:54;94835.81;;;23.09;66.03
70127;BME280;57491;42.694;23.314;2023-07-31T04:58:21;94832.09;;;23.05;65.86
70127;BME280;57491;42.694;23.314;2023-07-31T05:00:48;94822.56;;;23.09;65.26
70127;BME280;57491;42.694;23.314;2023-07-31T05:03:15;94829.47;;;23.25;65.14
70127;BME280;57491;42.694;23.314;2023-07-31T05:05:42;94833.44;;;23.38;64.40
70127;BME280;57491;42.694;23.314;2023-07-31T05:08:11;94831.91;;;23.47;64.14
70127;BME280;57491;42.694;23.314;2023-07-31T05:10:38;94830.06;;;23.63;64.01
70127;BME280;57491;42.694;23.314;2023-07-31T05:13:05;94830.56;;;23.90;62.83
70127;BME280;57491;42.694;23.314;2023-07-31T05:15:32;94830.53;;;24.15;62.09
70127;BME280;57491;42.694;23.314;2023-07-31T05:17:59;94821.78;;;24.20;61.18
70127;BME280;57491;42.694;23.314;2023-07-31T05:20:26;94827.88;;;24.30;60.81
70127;BME280;57491;42.694;23.314;2023-07-31T05:22:53;94826.25;;;24.44;60.20
70127;BME280;57491;42.694;23.314;2023-07-31T05:25:22;94814.25;;;24.52;59.66
70127;BME280;57491;42.694;23.314;2023-07-31T05:27:49;94826.75;;;24.47;60.16
70127;BME280;57491;42.694;23.314;2023-07-31T05:30:16;94821.38;;;24.67;59.63
70127;BME280;57491;42.694;23.314;2023-07-31T05:32:43;94824.50;;;24.79;58.63
70127;BME280;57491;42.694;23.314;2023-07-31T05:35:10;94820.84;;;24.65;58.70
70127;BME280;57491;42.694;23.314;2023-07-31T05:37:37;94824.16;;;24.96;58.06
70127;BME280;57491;42.694;23.314;2023-07-31T05:40:06;94822.09;;;25.31;57.37
70127;BME280;57491;42.694;23.314;2023-07-31T05:42:35;94811.34;;;25.47;56.80
70127;BME280;57491;42.694;23.314;2023-07-31T05:45:05;94813.44;;;25.50;55.94
70127;BME280;57491;42.694;23.314;2023-07-31T05:47:33;94824.72;;;25.37;56.16
70127;BME280;57491;42.694;23.314;2023-07-31T05:50:00;94827.59;;;25.40;55.92
70127;BME280;57491;42.694;23.314;2023-07-31T05:52:27;94816.28;;;25.24;55.31
70127;BME280;57491;42.694;23.314;2023-07-31T05:54:55;94822.53;;;25.00;55.37
70127;BME280;57491;42.694;23.314;2023-07-31T05:57:22;94819.94;;;24.84;55.94
70127;BME280;57491;42.694;23.314;2023-07-31T05:59:50;94824.28;;;24.70;55.94
70127;BME280;57491;42.694;23.314;2023-07-31T06:02:19;94811.59;;;24.47;56.02
70127;BME280;57491;42.694;23.314;2023-07-31T06:04:46;94833.13;;;24.45;56.63
70127;BME280;57491;42.694;23.314;2023-07-31T06:07:13;94837.63;;;24.50;56.73
70127;BME280;57491;42.694;23.314;2023-07-31T06:09:40;94831.47;;;24.60;55.64
70127;BME280;57491;42.694;23.314;2023-07-31T06:12:07;94831.72;;;24.68;55.14
70127;BME280;57491;42.694;23.314;2023-07-31T06:14:34;94844.69;;;24.90;54.15
70127;BME280;57491;42.694;23.314;2023-07-31T06:17:03;94842.16;;;25.14;53.52
70127;BME280;57491;42.694;23.314;2023-07-31T06:19:30;94842.91;;;25.24;53.38
70127;BME280;57491;42.694;23.314;2023-07-31T06:21:57;94846.53;;;25.39;52.39
70127;BME280;57491;42.694;23.314;2023-07-31T06:24:24;94846.22;;;25.45;52.48
70127;BME280;57491;42.694;23.314;2023-07-31T06:26:51;94842.66;;;25.65;51.23
70127;BME280;57491;42.694;23.314;2023-07-31T06:29:18;94846.59;;;25.67;50.89
70127;BME280;57491;42.694;23.314;2023-07-31T06:31:46;94842.06;;;25.68;51.42
70127;BME280;57491;42.694;23.314;2023-07-31T06:34:15;94842.19;;;25.53;51.49
70127;BME280;57491;42.694;23.314;2023-07-31T06:36:42;94837.19;;;25.41;52.14
70127;BME280;57491;42.694;23.314;2023-07-31T06:39:09;94825.63;;;25.61;52.32
70127;BME280;57491;42.694;23.314;2023-07-31T06:41:36;94832.13;;;26.07;51.52
70127;BME280;57491;42.694;23.314;2023-07-31T06:44:03;94833.38;;;26.44;50.07
70127;BME280;57491;42.694;23.314;2023-07-31T06:46:30;94833.91;;;26.46;49.22
70127;BME280;57491;42.694;23.314;2023-07-31T06:49:00;94827.84;;;26.40;49.65
70127;BME280;57491;42.694;23.314;2023-07-31T06:51:29;94846.28;;;26.37;48.34
70127;BME280;57491;42.694;23.314;2023-07-31T06:53:57;94846.72;;;26.44;48.49
70127;BME280;57491;42.694;23.314;2023-07-31T06:56:24;94844.00;;;26.73;48.12
70127;BME280;57491;42.694;23.314;2023-07-31T06:58:51;94834.34;;;27.00;47.42
70127;BME280;57491;42.694;23.314;2023-07-31T07:01:18;94840.47;;;27.01;46.99
70127;BME280;57491;42.694;23.314;2023-07-31T07:03:48;94847.97;;;26.99;47.02
70127;BME280;57491;42.694;23.314;2023-07-31T07:06:16;94831.28;;;26.88;46.49
70127;BME280;57491;42.694;23.314;2023-07-31T07:08:46;94832.75;;;26.99;46.25
70127;BME280;57491;42.694;23.314;2023-07-31T07:11:13;94831.78;;;27.33;46.71
70127;BME280;57491;42.694;23.314;2023-07-31T07:13:40;94828.22;;;27.56;45.78
70127;BME280;57491;42.694;23.314;2023-07-31T07:16:07;94824.28;;;27.86;44.88
70127;BME280;57491;42.694;23.314;2023-07-31T07:18:36;94831.81;;;27.98;44.63
70127;BME280;57491;42.694;23.314;2023-07-31T07:21:03;94842.94;;;28.05;43.61
70127;BME280;57491;42.694;23.314;2023-07-31T07:23:30;94831.59;;;27.80;43.97
70127;BME280;57491;42.694;23.314;2023-07-31T07:25:58;94833.59;;;27.88;43.88
70127;BME280;57491;42.694;23.314;2023-07-31T07:28:25;94828.66;;;27.95;43.81
70127;BME280;57491;42.694;23.314;2023-07-31T07:30:54;94830.75;;;27.66;44.65
70127;BME280;57491;42.694;23.314;2023-07-31T07:33:21;94831.69;;;27.57;45.01
70127;BME280;57491;42.694;23.314;2023-07-31T07:35:48;94831.53;;;27.67;45.10
70127;BME280;57491;42.694;23.314;2023-07-31T07:38:15;94828.06;;;27.66;44.81
70127;BME280;57491;42.694;23.314;2023-07-31T07:40:44;94832.13;;;27.64;44.24
70127;BME280;57491;42.694;23.314;2023-07-31T07:43:14;94838.13;;;27.88;44.71
70127;BME280;57491;42.694;23.314;2023-07-31T07:45:41;94839.03;;;28.16;44.24
70127;BME280;57491;42.694;23.314;2023-07-31T07:48:08;94836.38;;;28.43;42.91
70127;BME280;57491;42.694;23.314;2023-07-31T07:50:34;94829.88;;;28.76;41.84
70127;BME280;57491;42.694;23.314;2023-07-31T07:53:02;94843.84;;;28.73;40.79
70127;BME280;57491;42.694;23.314;2023-07-31T07:55:29;94841.84;;;28.65;40.90
70127;BME280;57491;42.694;23.314;2023-07-31T07:57:56;94842.06;;;28.82;41.17
70127;BME280;57491;42.694;23.314;2023-07-31T08:00:25;94840.78;;;28.80;40.93
70127;BME280;57491;42.694;23.314;2023-07-31T08:02:52;94840.06;;;29.02;40.78
70127;BME280;57491;42.694;23.314;2023-07-31T08:05:19;94845.03;;;29.08;41.24
70127;BME280;57491;42.694;23.314;2023-07-31T08:07:46;94838.34;;;29.19;40.83
70127;BME280;57491;42.694;23.314;2023-07-31T08:10:13;94847.53;;;29.27;39.89
70127;BME280;57491;42.694;23.314;2023-07-31T08:12:40;94821.59;;;29.14;40.11
70127;BME280;57491;42.694;23.314;2023-07-31T08:15:07;94836.91;;;29.49;39.07
70127;BME280;57491;42.694;23.314;2023-07-31T08:17:36;94842.19;;;29.99;38.37
70127;BME280;57491;42.694;23.314;2023-07-31T08:20:04;94837.41;;;29.96;37.99
70127;BME280;57491;42.694;23.314;2023-07-31T08:22:31;94842.63;;;29.79;38.24
70127;BME280;57491;42.694;23.314;2023-07-31T08:24:58;94819.50;;;29.60;38.21
70127;BME280;57491;42.694;23.314;2023-07-31T08:27:25;94844.22;;;29.80;39.07
70127;BME280;57491;42.694;23.314;2023-07-31T08:29:52;94844.50;;;29.92;38.43
70127;BME280;57491;42.694;23.314;2023-07-31T08:32:20;94844.84;;;30.21;37.79
70127;BME280;57491;42.694;23.314;2023-07-31T08:34:49;94844.19;;;30.46;37.58
70127;BME280;57491;42.694;23.314;2023-07-31T08:37:16;94841.25;;;30.56;36.57
70127;BME280;57491;42.694;23.314;2023-07-31T08:39:43;94841.72;;;30.67;36.15
70127;BME280;57491;42.694;23.314;2023-07-31T08:42:10;94833.38;;;30.69;36.91
70127;BME280;57491;42.694;23.314;2023-07-31T08:44:37;94837.78;;;30.34;36.12
70127;BME280;57491;42.694;23.314;2023-07-31T08:47:05;94833.66;;;29.97;36.70
70127;BME280;57491;42.694;23.314;2023-07-31T08:49:34;94834.44;;;30.28;36.27
70127;BME280;57491;42.694;23.314;2023-07-31T08:52:03;94836.88;;;30.78;35.83
70127;BME280;57491;42.694;23.314;2023-07-31T08:54:30;94834.09;;;31.00;35.13
70127;BME280;57491;42.694;23.314;2023-07-31T08:56:59;94844.16;;;30.86;34.67
70127;BME280;57491;42.694;23.314;2023-07-31T08:59:27;94829.09;;;30.68;35.72
70127;BME280;57491;42.694;23.314;2023-07-31T09:01:57;94837.81;;;30.73;35.40
70127;BME280;57491;42.694;23.314;2023-07-31T09:04:26;94834.72;;;30.88;34.97
70127;BME280;57491;42.694;23.314;2023-07-31T09:06:57;94826.47;;;30.85;34.82
70127;BME280;57491;42.694;23.314;2023-07-31T09:09:28;94832.28;;;31.26;34.59
70127;BME280;57491;42.694;23.314;2023-07-31T09:11:56;94813.50;;;31.69;34.20
70127;BME280;57491;42.694;23.314;2023-07-31T09:14:24;94830.66;;;32.28;33.40
70127;BME280;57491;42.694;23.314;2023-07-31T09:16:53;94823.50;;;32.41;31.84
70127;BME280;57491;42.694;23.314;2023-07-31T09:19:29;94831.44;;;32.29;32.39
70127;BME280;57491;42.694;23.314;2023-07-31T09:21:56;94825.19;;;31.91;33.11
70127;BME280;57491;42.694;23.314;2023-07-31T09:24:30;94828.34;;;31.67;32.97
70127;BME280;57491;42.694;23.314;2023-07-31T09:26:59;94804.31;;;31.62;32.76
70127;BME280;57491;42.694;23.314;2023-07-31T09:29:28;94811.25;;;31.88;33.22
70127;BME280;57491;42.694;23.314;2023-07-31T09:31:56;94809.16;;;32.11;32.56
70127;BME280;57491;42.694;23.314;2023-07-31T09:34:28;94808.06;;;32.04;32.96
70127;BME280;57491;42.694;23.314;2023-07-31T09:36:58;94801.59;;;32.13;32.78
70127;BME280;57491;42.694;23.314;2023-07-31T09:39:29;94804.59;;;32.12;32.74
70127;BME280;57491;42.694;23.314;2023-07-31T09:41:56;94805.16;;;32.35;32.75
70127;BME280;57491;42.694;23.314;2023-07-31T09:44:37;94806.06;;;32.85;31.79
70127;BME280;57491;42.694;23.314;2023-07-31T09:47:05;94797.22;;;33.05;31.35
70127;BME280;57491;42.694;23.314;2023-07-31T09:49:32;94800.50;;;33.11;31.20
70127;BME280;57491;42.694;23.314;2023-07-31T09:51:59;94786.41;;;33.35;30.61
70127;BME280;57491;42.694;23.314;2023-07-31T09:54:26;94790.09;;;33.30;30.52
70127;BME280;57491;42.694;23.314;2023-07-31T09:56:56;94782.19;;;33.46;30.63
70127;BME280;57491;42.694;23.314;2023-07-31T09:59:25;94790.22;;;33.34;29.92
70127;BME280;57491;42.694;23.314;2023-07-31T10:01:53;94793.22;;;33.11;30.33
70127;BME280;57491;42.694;23.314;2023-07-31T10:04:28;94793.00;;;33.25;29.90
70127;BME280;57491;42.694;23.314;2023-07-31T10:06:57;94779.75;;;33.74;29.77
70127;BME280;57491;42.694;23.314;2023-07-31T10:09:29;94790.03;;;33.92;29.52
70127;BME280;57491;42.694;23.314;2023-07-31T10:12:01;94791.00;;;33.55;29.54
70127;BME280;57491;42.694;23.314;2023-07-31T10:14:31;94790.34;;;33.79;29.72
70127;BME280;57491;42.694;23.314;2023-07-31T10:16:58;94792.22;;;34.11;28.89
70127;BME280;57491;42.694;23.314;2023-07-31T10:19:26;94784.81;;;34.08;28.61
70127;BME280;57491;42.694;23.314;2023-07-31T10:21:54;94783.97;;;34.40;28.62
70127;BME280;57491;42.694;23.314;2023-07-31T10:24:23;94794.22;;;34.35;27.77
70127;BME280;57491;42.694;23.314;2023-07-31T10:26:51;94789.66;;;34.15;28.45
70127;BME280;57491;42.694;23.314;2023-07-31T10:29:21;94781.84;;;34.01;28.46
70127;BME280;57491;42.694;23.314;2023-07-31T10:31:50;94772.13;;;34.09;27.81
70127;BME280;57491;42.694;23.314;2023-07-31T10:34:18;94773.47;;;34.15;27.52
70127;BME280;57491;42.694;23.314;2023-07-31T10:36:45;94779.34;;;34.17;27.49
70127;BME280;57491;42.694;23.314;2023-07-31T10:41:54;94766.91;;;34.61;27.29
70127;BME280;57491;42.694;23.314;2023-07-31T10:44:22;94777.59;;;34.81;26.91
70127;BME280;57491;42.694;23.314;2023-07-31T10:46:49;94783.06;;;34.36;27.04
70127;BME280;57491;42.694;23.314;2023-07-31T10:49:21;94764.44;;;34.80;26.83
70127;BME280;57491;42.694;23.314;2023-07-31T10:51:48;94756.53;;;35.11;26.39
70127;BME280;57491;42.694;23.314;2023-07-31T10:54:16;94753.09;;;34.74;26.88
70127;BME280;57491;42.694;23.314;2023-07-31T10:56:45;94767.56;;;35.06;26.32
70127;BME280;57491;42.694;23.314;2023-07-31T10:59:13;94758.22;;;34.55;26.29
70127;BME280;57491;42.694;23.314;2023-07-31T11:01:55;94755.00;;;34.04;27.73
70127;BME280;57491;42.694;23.314;2023-07-31T11:04:24;94753.00;;;34.14;27.24
70127;BME280;57491;42.694;23.314;2023-07-31T11:06:55;94749.69;;;34.53;26.33
70127;BME280;57491;42.694;23.314;2023-07-31T11:09:24;94750.56;;;35.06;26.38
70127;BME280;57491;42.694;23.314;2023-07-31T11:11:54;94741.44;;;35.50;24.93
70127;BME280;57491;42.694;23.314;2023-07-31T11:14:21;94747.41;;;35.16;25.05
70127;BME280;57491;42.694;23.314;2023-07-31T11:16:49;94742.94;;;34.47;26.21
70127;BME280;57491;42.694;23.314;2023-07-31T11:19:22;94754.19;;;34.49;26.33
70127;BME280;57491;42.694;23.314;2023-07-31T11:21:51;94739.75;;;35.06;25.46
70127;BME280;57491;42.694;23.314;2023-07-31T11:24:19;94735.63;;;35.64;24.66
70127;BME280;57491;42.694;23.314;2023-07-31T11:26:50;94744.75;;;34.79;24.85
70127;BME280;57491;42.694;23.314;2023-07-31T11:29:18;94745.19;;;34.33;26.25
70127;BME280;57491;42.694;23.314;2023-07-31T11:31:46;94746.34;;;33.99;26.36
70127;BME280;57491;42.694;23.314;2023-07-31T11:34:14;94737.75;;;33.52;27.09
70127;BME280;57491;42.694;23.314;2023-07-31T11:36:53;94723.84;;;33.50;27.14
70127;BME280;57491;42.694;23.314;2023-07-31T11:39:21;94745.44;;;33.95;26.68
70127;BME280;57491;42.694;23.314;2023-07-31T11:41:48;94729.91;;;33.80;27.29
70127;BME280;57491;42.694;23.314;2023-07-31T11:44:15;94731.03;;;33.58;27.51
70127;BME280;57491;42.694;23.314;2023-07-31T11:46:42;94731.06;;;34.03;27.58
70127;BME280;57491;42.694;23.314;2023-07-31T11:49:10;94734.16;;;34.50;26.64
70127;BME280;57491;42.694;23.314;2023-07-31T11:51:38;94723.84;;;34.76;26.43
70127;BME280;57491;42.694;23.314;2023-07-31T11:54:06;94710.69;;;35.15;25.68
70127;BME280;57491;42.694;23.314;2023-07-31T11:56:34;94716.13;;;34.90;25.98
70127;BME280;57491;42.694;23.314;2023-07-31T11:59:02;94722.69;;;34.89;25.87
70127;BME280;57491;42.694;23.314;2023-07-31T12:01:31;94734.91;;;34.99;25.42
70127;BME280;57491;42.694;23.314;2023-07-31T12:03:59;94727.34;;;35.05;25.34
70127;BME280;57491;42.694;23.314;2023-07-31T12:06:33;94726.94;;;34.90;25.57
70127;BME280;57491;42.694;23.314;2023-07-31T12:09:02;94724.16;;;35.27;26.32
70127;BME280;57491;42.694;23.314;2023-07-31T12:11:31;94727.69;;;35.83;25.06
70127;BME280;57491;42.694;23.314;2023-07-31T12:13:58;94708.31;;;35.97;24.75
70127;BME280;57491;42.694;23.314;2023-07-31T12:16:26;94711.78;;;35.66;25.83
70127;BME280;57491;42.694;23.314;2023-07-31T12:18:54;94711.34;;;35.52;26.13
70127;BME280;57491;42.694;23.314;2023-07-31T12:21:21;94707.63;;;35.28;25.74
70127;BME280;57491;42.694;23.314;2023-07-31T12:23:48;94706.63;;;35.49;25.97
70127;BME280;57491;42.694;23.314;2023-07-31T12:26:17;94703.06;;;35.17;25.74
70127;BME280;57491;42.694;23.314;2023-07-31T12:28:47;94710.72;;;34.90;25.77
70127;BME280;57491;42.694;23.314;2023-07-31T12:31:16;94709.66;;;34.67;26.28
70127;BME280;57491;42.694;23.314;2023-07-31T12:33:45;94714.38;;;34.58;25.99
70127;BME280;57491;42.694;23.314;2023-07-31T12:36:13;94710.34;;;33.83;26.46
70127;BME280;57491;42.694;23.314;2023-07-31T12:38:41;94701.94;;;33.84;26.90
70127;BME280;57491;42.694;23.314;2023-07-31T12:41:08;94704.50;;;33.81;27.28
70127;BME280;57491;42.694;23.314;2023-07-31T12:43:36;94697.84;;;33.78;26.84
70127;BME280;57491;42.694;23.314;2023-07-31T12:46:05;94705.06;;;33.21;27.60
70127;BME280;57491;42.694;23.314;2023-07-31T12:48:34;94688.75;;;32.75;28.43
70127;BME280;57491;42.694;23.314;2023-07-31T12:51:01;94694.53;;;32.57;28.73
70127;BME280;57491;42.694;23.314;2023-07-31T12:53:28;94690.91;;;32.32;29.40
70127;BME280;57491;42.694;23.314;2023-07-31T12:55:55;94689.06;;;32.07;29.68
70127;BME280;57491;42.694;23.314;2023-07-31T12:58:23;94686.78;;;31.97;29.47